Time;durP1;ratioP1;P1;durP2;ratioP2;P2;SDS_P1;SDS_P2;PMS_P1;PMS_P2;Temp;Humidity;BMP_temperature;BMP_pressure;BME280_temperature;BME280_humidity;BME280_pressure;Samples;Min_cycle;Max_cycle;Signal;HPM_P1;HPM_P2
2023/05/17 00:02:10;;;;;;;4.30;3.20;;;13.00;79.70;;;;;;5073578;28;20646;-75
2023/05/17 00:04:37;;;;;;;3.42;2.25;;;12.90;80.00;;;;;;5065656;28;20311;-77
2023/05/17 00:07:05;;;;;;;4.00;2.10;;;12.90;80.80;;;;;;5073529;28;20247;-76
2023/05/17 00:09:36;;;;;;;4.03;2.35;;;12.90;81.20;;;;;;5079132;28;20223;-75
2023/05/17 00:12:03;;;;;;;4.38;2.20;;;12.80;81.60;;;;;;5074022;28;20220;-74
2023/05/17 00:14:31;;;;;;;4.07;2.22;;;12.80;81.80;;;;;;5077170;28;20270;-75
2023/05/17 00:16:58;;;;;;;8.63;4.38;;;12.80;82.20;;;;;;5064489;28;20311;-74
2023/05/17 00:19:27;;;;;;;4.00;2.20;;;12.80;83.10;;;;;;5054842;28;20307;-76
2023/05/17 00:21:54;;;;;;;4.07;2.38;;;12.80;83.70;;;;;;5053227;28;20220;-74
2023/05/17 00:24:21;;;;;;;4.30;2.22;;;12.70;85.50;;;;;;5059012;28;20215;-75
2023/05/17 00:26:48;;;;;;;4.90;2.20;;;12.70;85.10;;;;;;5055771;28;20255;-76
2023/05/17 00:29:15;;;;;;;4.82;2.47;;;12.70;85.90;;;;;;5053556;28;20228;-74
2023/05/17 00:31:42;;;;;;;4.43;3.20;;;12.60;86.20;;;;;;5066185;28;20228;-74
2023/05/17 00:34:09;;;;;;;11.55;4.05;;;12.60;86.90;;;;;;5067538;28;20220;-76
2023/05/17 00:36:37;;;;;;;4.82;3.13;;;12.60;87.10;;;;;;5067639;28;20674;-74
2023/05/17 00:39:04;;;;;;;2.67;2.30;;;12.60;87.80;;;;;;5069201;28;20262;-74
2023/05/17 00:41:32;;;;;;;5.43;2.80;;;12.60;88.50;;;;;;5072417;28;20228;-74
2023/05/17 00:44:01;;;;;;;4.47;2.30;;;12.60;89.00;;;;;;5072109;28;20228;-74
2023/05/17 00:46:28;;;;;;;3.30;2.45;;;12.60;89.60;;;;;;5071647;28;20634;-77
2023/05/17 00:48:56;;;;;;;7.57;3.67;;;12.50;90.10;;;;;;5063316;28;20282;-74
2023/05/17 00:51:23;;;;;;;6.32;3.17;;;12.50;90.40;;;;;;5073103;28;20234;-75
2023/05/17 00:53:52;;;;;;;3.88;2.60;;;12.40;90.70;;;;;;5072439;28;20224;-74
2023/05/17 00:56:19;;;;;;;6.75;2.88;;;12.40;90.90;;;;;;5070292;28;20611;-76
2023/05/17 00:58:46;;;;;;;9.10;3.50;;;12.40;91.00;;;;;;5068819;28;20227;-74
2023/05/17 01:01:14;;;;;;;3.65;2.25;;;12.40;91.40;;;;;;5073338;28;20231;-75
2023/05/17 01:03:42;;;;;;;4.53;3.33;;;12.40;91.50;;;;;;5070535;28;20304;-74
2023/05/17 01:06:09;;;;;;;4.50;2.63;;;12.40;91.80;;;;;;5071915;28;20224;-76
2023/05/17 01:08:36;;;;;;;8.63;3.42;;;12.30;92.00;;;;;;5071234;28;20235;-74
2023/05/17 01:11:14;;;;;;;3.53;2.85;;;12.40;92.10;;;;;;5072800;28;20219;-74
2023/05/17 01:13:50;;;;;;;5.28;3.53;;;12.30;92.30;;;;;;5071693;28;20219;-74
2023/05/17 01:16:23;;;;;;;6.82;3.92;;;12.30;92.70;;;;;;5072544;28;20314;-76
2023/05/17 01:18:56;;;;;;;6.28;2.97;;;12.30;92.80;;;;;;5072545;28;20566;-76
2023/05/17 01:21:36;;;;;;;7.30;3.20;;;12.30;93.10;;;;;;5072771;28;20220;-76
2023/05/17 01:24:17;;;;;;;4.35;2.80;;;12.30;93.70;;;;;;5073096;28;20230;-75
2023/05/17 01:26:49;;;;;;;4.40;2.47;;;12.30;93.60;;;;;;5072887;28;20234;-76
2023/05/17 01:29:20;;;;;;;6.13;3.45;;;12.20;93.80;;;;;;5072219;28;20216;-74
2023/05/17 01:31:49;;;;;;;8.95;3.15;;;12.30;94.00;;;;;;5072164;28;20606;-74
2023/05/17 01:34:25;;;;;;;5.53;3.67;;;12.20;94.30;;;;;;5071883;28;20227;-76
2023/05/17 01:37:01;;;;;;;4.07;3.67;;;12.20;94.50;;;;;;5072818;28;20599;-77
2023/05/17 01:39:43;;;;;;;7.13;3.22;;;12.20;94.80;;;;;;5072609;28;20235;-77
2023/05/17 01:42:17;;;;;;;8.52;5.05;;;12.20;95.10;;;;;;5070878;28;20619;-77
2023/05/17 01:44:52;;;;;;;7.85;4.43;;;12.20;95.40;;;;;;5072703;28;20273;-77
2023/05/17 01:47:27;;;;;;;8.73;3.72;;;12.10;95.70;;;;;;5071541;28;20216;-75
2023/05/17 01:50:00;;;;;;;4.80;3.47;;;12.10;96.00;;;;;;5072451;28;20239;-75
2023/05/17 01:52:35;;;;;;;5.70;3.20;;;12.10;96.20;;;;;;5071120;28;20573;-75
2023/05/17 01:55:09;;;;;;;6.60;3.20;;;12.10;96.40;;;;;;5072475;28;20731;-75
2023/05/17 01:57:38;;;;;;;7.60;2.75;;;12.10;96.60;;;;;;5071521;28;20227;-77
2023/05/17 02:00:08;;;;;;;7.20;3.35;;;12.10;96.80;;;;;;5072545;28;20285;-75
2023/05/17 02:02:35;;;;;;;10.95;3.95;;;12.10;97.10;;;;;;5071883;28;20226;-77
2023/05/17 02:05:02;;;;;;;7.05;3.30;;;12.10;97.40;;;;;;5072347;28;20238;-77
2023/05/17 02:07:29;;;;;;;8.50;4.13;;;12.10;97.60;;;;;;5074006;28;20301;-76
2023/05/17 02:09:56;;;;;;;7.60;4.25;;;12.10;97.80;;;;;;5076001;28;20270;-75
2023/05/17 02:12:24;;;;;;;5.88;4.10;;;12.10;98.00;;;;;;5075391;28;20231;-74
2023/05/17 02:14:52;;;;;;;5.35;3.95;;;12.10;98.20;;;;;;5075949;28;20606;-76
2023/05/17 02:17:19;;;;;;;7.50;4.25;;;12.10;98.40;;;;;;5074679;28;20258;-74
2023/05/17 02:19:47;;;;;;;8.35;3.58;;;12.00;98.40;;;;;;5075730;28;20224;-75
2023/05/17 02:22:14;;;;;;;7.63;3.72;;;12.10;98.70;;;;;;5075353;28;20220;-75
2023/05/17 02:24:41;;;;;;;5.40;4.15;;;12.00;98.90;;;;;;5075310;28;20265;-77
2023/05/17 02:27:08;;;;;;;6.18;3.80;;;12.00;99.20;;;;;;5075380;28;20235;-77
2023/05/17 02:29:36;;;;;;;6.57;4.05;;;12.00;99.30;;;;;;5074543;28;20226;-75
2023/05/17 02:32:05;;;;;;;11.52;3.83;;;12.00;99.40;;;;;;5075679;28;20312;-77
2023/05/17 02:34:41;;;;;;;7.85;4.03;;;12.00;99.60;;;;;;5074390;28;20281;-75
2023/05/17 02:37:08;;;;;;;9.73;3.35;;;12.00;99.80;;;;;;5074729;28;20220;-76
2023/05/17 02:39:35;;;;;;;9.25;4.47;;;12.00;99.90;;;;;;5074984;28;20255;-78
2023/05/17 02:42:02;;;;;;;5.30;3.80;;;12.00;99.90;;;;;;5075236;28;20220;-76
2023/05/17 02:44:38;;;;;;;10.57;3.67;;;12.00;99.90;;;;;;5074033;28;20247;-77
2023/05/17 02:47:07;;;;;;;8.40;4.25;;;12.00;99.90;;;;;;5074907;28;20228;-76
2023/05/17 02:49:34;;;;;;;14.48;6.50;;;12.10;99.90;;;;;;5074616;28;20227;-76
2023/05/17 02:52:01;;;;;;;7.75;4.53;;;12.10;99.90;;;;;;5075366;28;20232;-75
2023/05/17 02:54:29;;;;;;;11.00;4.00;;;12.10;99.90;;;;;;5074487;28;20266;-75
2023/05/17 02:56:56;;;;;;;5.55;3.15;;;12.10;99.90;;;;;;5074972;28;20220;-74
2023/05/17 02:59:23;;;;;;;11.00;4.88;;;12.10;99.90;;;;;;5074681;28;20281;-77
2023/05/17 03:01:53;;;;;;;10.45;4.50;;;12.20;99.90;;;;;;5075337;28;20212;-77
2023/05/17 03:04:28;;;;;;;8.07;3.35;;;12.20;99.90;;;;;;5075338;28;20231;-76
2023/05/17 03:06:56;;;;;;;7.65;4.30;;;12.20;99.90;;;;;;5075501;28;20231;-77
2023/05/17 03:09:23;;;;;;;5.32;3.50;;;12.20;99.90;;;;;;5079339;28;20228;-75
2023/05/17 03:11:50;;;;;;;6.47;3.88;;;12.20;99.90;;;;;;5074155;28;20224;-75
2023/05/17 03:14:17;;;;;;;4.70;3.58;;;12.20;99.90;;;;;;5074830;28;20220;-78
2023/05/17 03:16:45;;;;;;;7.22;4.18;;;12.20;99.90;;;;;;5073907;28;20289;-77
2023/05/17 03:19:12;;;;;;;9.70;3.92;;;12.20;99.90;;;;;;5074410;28;20238;-77
2023/05/17 03:21:40;;;;;;;4.88;3.55;;;12.20;99.90;;;;;;5074588;28;20220;-77
2023/05/17 03:24:07;;;;;;;7.22;4.03;;;12.20;99.90;;;;;;5074531;28;20250;-74
2023/05/17 03:26:34;;;;;;;7.63;4.03;;;12.20;99.90;;;;;;5074373;28;20236;-74
2023/05/17 03:29:01;;;;;;;9.90;4.00;;;12.20;99.90;;;;;;5074328;28;20235;-74
2023/05/17 03:31:28;;;;;;;8.57;3.80;;;12.20;99.90;;;;;;5074494;28;20649;-74
2023/05/17 03:33:55;;;;;;;9.20;3.30;;;12.30;99.90;;;;;;5073512;28;20289;-76
2023/05/17 03:36:23;;;;;;;10.70;4.70;;;12.30;99.90;;;;;;5074350;28;20737;-79
2023/05/17 03:38:52;;;;;;;12.30;4.88;;;12.30;99.90;;;;;;5074098;28;20224;-74
2023/05/17 03:41:19;;;;;;;8.30;6.63;;;12.20;99.90;;;;;;5073988;28;20220;-77
2023/05/17 03:43:46;;;;;;;8.80;5.20;;;12.30;99.90;;;;;;5074113;28;20716;-75
2023/05/17 03:46:13;;;;;;;9.95;5.13;;;12.30;99.90;;;;;;5074330;28;20227;-75
2023/05/17 03:48:40;;;;;;;9.85;4.60;;;12.30;99.90;;;;;;5074038;28;20665;-77
2023/05/17 03:51:07;;;;;;;11.57;4.63;;;12.30;99.90;;;;;;5074327;28;20627;-76
2023/05/17 03:53:35;;;;;;;7.03;4.35;;;12.30;99.90;;;;;;5074517;28;20219;-77
2023/05/17 03:56:06;;;;;;;8.95;4.03;;;12.30;99.90;;;;;;5078871;28;20696;-77
2023/05/17 03:58:33;;;;;;;6.45;4.22;;;12.40;99.90;;;;;;5074075;28;20274;-76
2023/05/17 04:01:00;;;;;;;12.30;5.10;;;12.30;99.90;;;;;;5073632;28;20248;-74
2023/05/17 04:03:27;;;;;;;9.75;4.03;;;12.30;99.90;;;;;;5074182;28;20275;-76
2023/05/17 04:05:54;;;;;;;7.97;4.22;;;12.30;99.90;;;;;;5073367;28;20301;-76
2023/05/17 04:08:31;;;;;;;6.82;3.90;;;12.20;99.90;;;;;;5074061;28;20216;-74
2023/05/17 04:11:00;;;;;;;8.50;4.30;;;12.20;99.90;;;;;;5079464;28;20247;-77
2023/05/17 04:13:46;;;;;;;6.85;3.75;;;12.20;99.90;;;;;;5074095;28;20293;-77
2023/05/17 04:16:16;;;;;;;10.48;4.25;;;12.20;99.90;;;;;;5061713;28;20224;-75
2023/05/17 04:18:44;;;;;;;10.43;4.22;;;12.20;99.90;;;;;;5073801;28;20682;-76
2023/05/17 04:21:11;;;;;;;5.60;4.05;;;12.20;99.90;;;;;;5073333;28;20260;-78
2023/05/17 04:23:37;;;;;;;12.48;5.75;;;12.20;99.90;;;;;;5073822;28;20220;-77
2023/05/17 04:26:05;;;;;;;8.75;4.53;;;12.30;99.90;;;;;;5072896;28;20285;-75
2023/05/17 04:28:34;;;;;;;5.32;4.22;;;12.30;99.90;;;;;;5073772;28;20227;-74
2023/05/17 04:31:02;;;;;;;10.02;4.35;;;12.30;99.90;;;;;;5073019;28;20322;-77
2023/05/17 04:33:29;;;;;;;7.72;4.30;;;12.20;99.90;;;;;;5073519;28;20769;-76
2023/05/17 04:35:56;;;;;;;10.25;4.05;;;12.20;99.90;;;;;;5073301;28;20702;-77
2023/05/17 04:38:24;;;;;;;9.05;4.65;;;12.20;99.90;;;;;;5073491;28;20238;-74
2023/05/17 04:40:51;;;;;;;9.57;4.40;;;12.20;99.90;;;;;;5073719;28;20337;-74
2023/05/17 04:43:17;;;;;;;8.82;5.88;;;12.30;99.90;;;;;;5073065;28;20650;-74
2023/05/17 04:45:46;;;;;;;6.85;4.43;;;12.30;99.90;;;;;;5073129;28;20243;-74
2023/05/17 04:48:14;;;;;;;11.20;5.43;;;12.30;99.90;;;;;;5073217;28;20686;-75
2023/05/17 04:50:44;;;;;;;11.70;4.68;;;12.30;99.90;;;;;;5073428;28;20231;-75
2023/05/17 04:53:12;;;;;;;9.00;5.03;;;12.40;99.90;;;;;;5073068;28;20315;-75
2023/05/17 04:55:39;;;;;;;10.52;6.13;;;12.40;99.90;;;;;;5073505;28;20626;-75
2023/05/17 04:58:06;;;;;;;7.88;4.10;;;12.40;99.90;;;;;;5072707;28;20311;-75
2023/05/17 05:00:33;;;;;;;9.23;5.00;;;12.40;99.90;;;;;;5073318;28;20296;-76
2023/05/17 05:03:03;;;;;;;10.82;5.20;;;12.40;99.90;;;;;;5072778;28;20228;-76
2023/05/17 05:05:30;;;;;;;11.30;4.72;;;12.40;99.90;;;;;;5073002;28;20230;-75
2023/05/17 05:07:57;;;;;;;9.20;5.55;;;12.40;99.90;;;;;;5072307;28;20286;-75
2023/05/17 05:10:27;;;;;;;11.30;4.75;;;12.40;99.90;;;;;;5072812;28;20289;-76
2023/05/17 05:12:54;;;;;;;12.20;5.90;;;12.50;99.90;;;;;;5073035;28;20247;-76
2023/05/17 05:15:21;;;;;;;6.38;4.88;;;12.50;99.90;;;;;;5072769;28;20224;-77
2023/05/17 05:17:48;;;;;;;8.10;3.88;;;12.50;99.90;;;;;;5073087;28;20228;-75
2023/05/17 05:20:17;;;;;;;12.18;5.57;;;12.50;99.90;;;;;;5072379;28;20232;-77
2023/05/17 05:22:44;;;;;;;8.73;5.13;;;12.60;99.90;;;;;;5073089;28;20251;-77
2023/05/17 05:25:11;;;;;;;9.50;3.38;;;12.60;99.90;;;;;;5074600;28;20587;-77
2023/05/17 05:27:38;;;;;;;12.55;3.75;;;12.60;99.90;;;;;;5072146;28;20231;-77
2023/05/17 05:30:06;;;;;;;8.80;3.83;;;12.70;99.90;;;;;;5072728;28;20239;-77
2023/05/17 05:32:33;;;;;;;11.35;4.38;;;12.70;99.90;;;;;;5072697;28;20240;-77
2023/05/17 05:35:00;;;;;;;6.13;3.60;;;12.70;99.90;;;;;;5073539;28;20220;-76
2023/05/17 05:37:33;;;;;;;12.25;4.72;;;12.70;99.90;;;;;;5073682;28;20258;-77
2023/05/17 05:40:00;;;;;;;14.05;5.63;;;12.80;99.90;;;;;;5073396;28;20219;-77
2023/05/17 05:42:28;;;;;;;15.32;7.90;;;12.80;99.90;;;;;;5078426;28;20235;-75
2023/05/17 05:44:55;;;;;;;12.20;4.70;;;12.90;99.90;;;;;;5079656;28;20231;-77
2023/05/17 05:47:22;;;;;;;9.90;6.32;;;12.90;99.90;;;;;;5079607;28;20219;-75
2023/05/17 05:49:49;;;;;;;10.75;5.00;;;13.00;99.90;;;;;;5082283;28;20224;-76
2023/05/17 05:52:18;;;;;;;11.85;4.65;;;13.00;99.90;;;;;;5082839;28;20224;-77
2023/05/17 05:54:46;;;;;;;7.43;4.35;;;13.10;99.90;;;;;;5087489;28;20228;-77
2023/05/17 05:57:13;;;;;;;9.32;4.90;;;13.10;99.90;;;;;;5080913;28;20559;-77
2023/05/17 05:59:42;;;;;;;10.48;4.40;;;13.20;99.90;;;;;;5079520;28;20243;-78
2023/05/17 06:02:09;;;;;;;5.90;4.15;;;13.20;99.90;;;;;;5079789;28;20247;-77
2023/05/17 06:04:37;;;;;;;7.38;3.92;;;13.30;99.90;;;;;;5081974;28;20262;-77
2023/05/17 06:07:04;;;;;;;6.53;5.45;;;13.40;99.90;;;;;;5078586;28;20311;-77
2023/05/17 06:09:31;;;;;;;8.02;3.92;;;13.40;99.90;;;;;;5081537;28;20293;-77
2023/05/17 06:12:00;;;;;;;14.65;7.18;;;13.50;99.90;;;;;;5080815;28;20224;-75
2023/05/17 06:14:27;;;;;;;9.43;5.05;;;13.50;99.90;;;;;;5087299;28;20259;-75
2023/05/17 06:16:54;;;;;;;10.13;4.13;;;13.50;99.90;;;;;;5088437;28;20301;-77
2023/05/17 06:19:33;;;;;;;11.65;4.85;;;13.60;99.70;;;;;;5091347;28;20212;-77
2023/05/17 06:22:00;;;;;;;6.40;2.80;;;13.70;99.00;;;;;;5091697;28;20293;-76
2023/05/17 06:24:26;;;;;;;12.57;4.75;;;13.70;98.30;;;;;;5091400;28;20254;-76
2023/05/17 06:26:53;;;;;;;15.02;7.60;;;13.70;98.10;;;;;;5089976;28;20289;-77
2023/05/17 06:29:22;;;;;;;10.85;4.70;;;13.80;98.00;;;;;;5091404;28;20228;-77
2023/05/17 06:31:49;;;;;;;8.83;4.53;;;13.80;97.10;;;;;;5088721;28;20283;-77
2023/05/17 06:34:16;;;;;;;4.75;3.15;;;13.90;96.60;;;;;;5086855;28;20488;-77
2023/05/17 06:36:43;;;;;;;9.40;4.07;;;13.90;96.30;;;;;;5091818;28;20251;-76
2023/05/17 06:39:11;;;;;;;11.48;4.53;;;13.90;96.30;;;;;;5085431;28;20535;-75
2023/05/17 06:41:38;;;;;;;11.13;5.28;;;13.80;96.00;;;;;;5086354;28;20239;-74
2023/05/17 06:44:05;;;;;;;7.03;3.53;;;13.90;96.00;;;;;;5087685;28;20676;-74
2023/05/17 06:46:36;;;;;;;6.38;3.30;;;13.90;95.80;;;;;;5085904;28;20231;-77
2023/05/17 06:49:03;;;;;;;11.02;3.92;;;14.00;95.00;;;;;;5083723;28;20277;-74
2023/05/17 06:51:31;;;;;;;10.63;3.42;;;14.00;94.40;;;;;;5086442;28;20251;-74
2023/05/17 06:53:58;;;;;;;10.43;3.88;;;13.90;93.00;;;;;;5089232;28;20264;-75
2023/05/17 06:56:25;;;;;;;14.03;3.30;;;13.90;92.10;;;;;;5089927;28;20228;-75
2023/05/17 06:58:52;;;;;;;6.15;2.53;;;13.90;91.80;;;;;;5089611;28;20462;-76
2023/05/17 07:01:19;;;;;;;8.77;4.18;;;14.00;91.50;;;;;;5093169;28;20224;-76
2023/05/17 07:03:47;;;;;;;7.82;2.15;;;14.10;91.30;;;;;;5090225;28;20310;-77
2023/05/17 07:06:14;;;;;;;10.20;4.53;;;14.20;91.20;;;;;;5078912;28;20250;-75
2023/05/17 07:08:41;;;;;;;6.07;2.87;;;14.30;91.10;;;;;;5081147;28;20454;-74
2023/05/17 07:11:09;;;;;;;11.13;3.30;;;14.40;91.10;;;;;;5095546;28;20455;-75
2023/05/17 07:13:35;;;;;;;7.40;3.50;;;14.50;90.80;;;;;;5089109;28;20483;-75
2023/05/17 07:16:02;;;;;;;6.57;3.17;;;14.60;90.60;;;;;;5089628;28;20458;-77
2023/05/17 07:18:29;;;;;;;10.67;3.30;;;14.70;90.50;;;;;;5086196;28;20531;-76
2023/05/17 07:20:58;;;;;;;5.37;3.43;;;14.80;90.00;;;;;;5081968;28;20967;-77
2023/05/17 07:23:25;;;;;;;6.70;3.00;;;14.90;90.10;;;;;;5100776;28;20987;-75
2023/05/17 07:25:52;;;;;;;8.27;2.93;;;15.00;90.10;;;;;;5090145;28;20478;-76
2023/05/17 07:28:19;;;;;;;8.40;2.87;;;15.20;89.80;;;;;;5080974;28;20477;-76
2023/05/17 07:30:46;;;;;;;9.27;3.53;;;15.40;89.40;;;;;;5077254;28;20462;-74
2023/05/17 07:33:13;;;;;;;13.60;4.53;;;15.60;89.50;;;;;;5076391;28;20532;-75
2023/05/17 07:35:40;;;;;;;10.97;4.50;;;15.70;90.10;;;;;;5075934;28;20477;-75
2023/05/17 07:38:09;;;;;;;7.57;4.50;;;15.70;90.10;;;;;;5074871;28;20540;-74
2023/05/17 07:40:36;;;;;;;7.77;3.90;;;15.70;90.10;;;;;;5074585;28;20476;-74
2023/05/17 07:43:03;;;;;;;10.67;5.47;;;15.70;90.10;;;;;;5065960;28;20475;-74
2023/05/17 07:45:30;;;;;;;6.90;3.73;;;15.70;89.80;;;;;;5055017;28;20468;-75
2023/05/17 07:47:57;;;;;;;11.20;3.80;;;15.70;89.30;;;;;;5056135;28;20953;-73
2023/05/17 07:50:24;;;;;;;6.50;3.87;;;15.70;88.50;;;;;;5054073;28;20525;-74
2023/05/17 07:52:52;;;;;;;5.37;3.50;;;15.80;88.50;;;;;;5053692;28;20460;-74
2023/05/17 07:55:20;;;;;;;9.17;3.43;;;15.80;85.50;;;;;;5052730;28;20482;-74
2023/05/17 07:57:47;;;;;;;7.40;2.67;;;15.80;83.20;;;;;;5055079;28;20808;-74
2023/05/17 08:00:18;;;;;;;9.27;3.87;;;15.80;82.60;;;;;;5054500;28;20536;-74
2023/05/17 08:02:45;;;;;;;8.87;3.40;;;16.00;80.50;;;;;;5054592;28;20455;-74
2023/05/17 08:05:12;;;;;;;5.83;2.60;;;16.00;79.50;;;;;;5053603;28;20977;-74
2023/05/17 08:07:39;;;;;;;8.87;3.97;;;16.10;78.60;;;;;;5053680;28;20533;-74
2023/05/17 08:10:07;;;;;;;9.47;3.70;;;16.20;78.00;;;;;;5054513;28;20471;-75
2023/05/17 08:12:35;;;;;;;7.23;2.60;;;16.30;77.30;;;;;;5053521;28;20501;-74
2023/05/17 08:15:02;;;;;;;6.73;3.60;;;16.40;76.10;;;;;;5054841;28;20786;-74
2023/05/17 08:17:29;;;;;;;7.00;2.47;;;16.50;74.30;;;;;;5053622;28;20502;-74
2023/05/17 08:19:56;;;;;;;7.93;3.20;;;16.50;73.80;;;;;;5054813;28;20464;-74
2023/05/17 08:22:23;;;;;;;7.23;3.00;;;16.60;74.20;;;;;;5053678;28;20529;-74
2023/05/17 08:24:50;;;;;;;7.87;4.37;;;16.70;74.70;;;;;;5054603;28;20474;-74
2023/05/17 08:27:17;;;;;;;6.07;2.60;;;16.80;74.60;;;;;;5057905;28;20467;-74
2023/05/17 08:29:46;;;;;;;7.23;2.90;;;16.80;74.80;;;;;;5054054;28;20464;-75
2023/05/17 08:32:13;;;;;;;10.63;3.37;;;16.80;75.60;;;;;;5054421;28;20467;-75
2023/05/17 08:34:40;;;;;;;11.33;5.13;;;16.80;76.00;;;;;;5053958;28;20528;-74
2023/05/17 08:37:07;;;;;;;7.77;4.00;;;16.80;76.30;;;;;;5054636;28;20524;-75
2023/05/17 08:39:34;;;;;;;9.70;4.13;;;16.80;75.70;;;;;;5054087;28;20491;-74
2023/05/17 08:42:01;;;;;;;5.50;3.10;;;16.90;74.70;;;;;;5054142;28;21059;-75
2023/05/17 08:44:28;;;;;;;6.80;3.63;;;16.90;73.90;;;;;;5053129;28;20767;-75
2023/05/17 08:46:58;;;;;;;7.13;3.07;;;17.00;73.20;;;;;;5054185;28;20470;-74
2023/05/17 08:49:27;;;;;;;6.53;3.50;;;17.00;71.50;;;;;;5054089;28;21022;-74
2023/05/17 08:51:55;;;;;;;10.73;5.10;;;17.10;71.30;;;;;;5052967;28;20521;-74
2023/05/17 08:54:22;;;;;;;9.40;3.20;;;17.00;70.70;;;;;;5058559;28;20477;-73
2023/05/17 08:56:55;;;;;;;8.83;3.30;;;17.00;70.00;;;;;;5054431;28;20479;-73
2023/05/17 08:59:23;;;;;;;13.73;4.37;;;17.00;69.20;;;;;;5053775;28;20467;-75
2023/05/17 09:01:54;;;;;;;11.90;4.17;;;16.90;69.30;;;;;;5053571;28;20529;-76
2023/05/17 09:04:23;;;;;;;7.37;3.60;;;16.90;70.00;;;;;;5053585;28;20467;-75
2023/05/17 09:06:50;;;;;;;6.43;2.40;;;16.80;70.20;;;;;;5053484;28;20467;-75
2023/05/17 09:09:19;;;;;;;7.23;3.03;;;16.80;70.60;;;;;;5053458;28;20471;-75
2023/05/17 09:11:46;;;;;;;8.67;3.23;;;16.80;69.90;;;;;;5052404;28;20467;-76
2023/05/17 09:14:16;;;;;;;10.10;3.13;;;16.80;68.60;;;;;;5053326;28;20471;-75
2023/05/17 09:16:49;;;;;;;7.90;3.20;;;16.70;68.70;;;;;;5052343;28;20477;-76
2023/05/17 09:19:17;;;;;;;4.53;2.70;;;16.70;68.70;;;;;;5052954;28;20951;-75
2023/05/17 09:21:47;;;;;;;11.53;2.90;;;16.70;67.90;;;;;;5052518;28;20463;-75
2023/05/17 09:24:15;;;;;;;6.10;2.60;;;16.70;66.30;;;;;;5053127;28;20481;-77
2023/05/17 09:26:43;;;;;;;7.63;2.93;;;16.70;66.20;;;;;;5052659;28;20475;-76
2023/05/17 09:29:12;;;;;;;8.27;3.13;;;16.60;65.90;;;;;;5052892;28;20550;-77
2023/05/17 09:31:39;;;;;;;9.40;2.90;;;16.60;66.60;;;;;;5053039;28;20464;-75
2023/05/17 09:34:10;;;;;;;3.87;2.17;;;16.60;66.90;;;;;;5049014;28;21000;-76
2023/05/17 09:36:40;;;;;;;8.50;3.00;;;16.60;66.60;;;;;;5053018;28;20807;-76
2023/05/17 09:39:11;;;;;;;8.50;3.13;;;16.60;65.50;;;;;;5051894;28;20929;-76
2023/05/17 09:41:48;;;;;;;7.90;2.97;;;16.60;65.30;;;;;;5053522;28;20484;-75
2023/05/17 09:44:15;;;;;;;6.07;2.40;;;16.60;64.70;;;;;;5052881;28;20562;-75
2023/05/17 09:46:46;;;;;;;6.53;2.80;;;16.60;64.40;;;;;;5052949;28;20475;-75
2023/05/17 09:49:13;;;;;;;9.50;3.33;;;16.50;65.00;;;;;;5052414;28;20464;-75
2023/05/17 09:51:43;;;;;;;6.47;2.20;;;16.50;64.70;;;;;;5053072;28;20608;-75
2023/05/17 09:54:12;;;;;;;8.63;4.27;;;16.50;65.30;;;;;;5053000;28;20479;-75
2023/05/17 09:56:39;;;;;;;3.77;2.30;;;16.60;64.10;;;;;;5056767;28;20593;-75
2023/05/17 09:59:12;;;;;;;5.80;2.80;;;16.60;64.00;;;;;;5054136;28;20471;-76
2023/05/17 10:01:41;;;;;;;5.60;2.93;;;16.60;64.20;;;;;;5052626;28;20475;-75
2023/05/17 10:04:10;;;;;;;5.57;2.40;;;16.60;64.70;;;;;;5052520;28;20558;-76
2023/05/17 10:06:40;;;;;;;6.50;3.00;;;16.60;65.20;;;;;;5052950;28;20463;-76
2023/05/17 10:09:12;;;;;;;7.33;3.57;;;16.60;64.10;;;;;;5052448;28;20532;-76
2023/05/17 10:11:49;;;;;;;4.67;2.40;;;16.70;63.80;;;;;;5052472;28;20533;-76
2023/05/17 10:14:22;;;;;;;8.70;3.73;;;16.70;63.70;;;;;;5052346;28;20836;-75
2023/05/17 10:16:49;;;;;;;5.80;2.80;;;16.70;63.80;;;;;;5052448;28;20536;-75
2023/05/17 10:19:18;;;;;;;4.27;2.67;;;16.80;64.10;;;;;;5057321;28;20561;-76
2023/05/17 10:21:48;;;;;;;7.43;2.60;;;16.80;63.40;;;;;;5070935;28;20493;-76
2023/05/17 10:24:17;;;;;;;2.97;2.00;;;16.80;61.90;;;;;;5070472;28;20532;-75
2023/05/17 10:26:45;;;;;;;4.87;1.80;;;16.80;60.80;;;;;;5072247;28;20862;-76
2023/05/17 10:29:12;;;;;;;8.30;2.57;;;16.80;60.60;;;;;;5075116;28;20462;-74
2023/05/17 10:31:43;;;;;;;6.40;3.00;;;16.80;61.00;;;;;;5076119;28;20500;-74
2023/05/17 10:34:11;;;;;;;5.43;2.37;;;16.90;61.30;;;;;;5074514;28;20531;-74
2023/05/17 10:36:39;;;;;;;6.17;2.60;;;16.90;61.00;;;;;;5075933;28;20551;-74
2023/05/17 10:39:07;;;;;;;6.50;2.97;;;17.00;61.00;;;;;;5076324;28;20577;-75
2023/05/17 10:41:40;;;;;;;8.07;2.27;;;16.90;59.40;;;;;;5076198;28;20779;-75
2023/05/17 10:44:08;;;;;;;7.13;3.00;;;16.90;59.90;;;;;;5075804;28;20474;-75
2023/05/17 10:46:36;;;;;;;6.70;2.37;;;16.90;60.20;;;;;;5075832;28;20466;-74
2023/05/17 10:49:03;;;;;;;5.47;2.43;;;17.00;60.60;;;;;;5075261;28;20470;-74
2023/05/17 10:51:33;;;;;;;13.13;3.47;;;17.00;60.80;;;;;;5075286;28;20466;-75
2023/05/17 10:54:11;;;;;;;11.03;3.50;;;17.00;60.30;;;;;;5075562;28;20495;-74
2023/05/17 10:56:42;;;;;;;5.93;2.90;;;17.10;59.70;;;;;;5074167;28;20543;-75
2023/05/17 10:59:20;;;;;;;6.93;2.90;;;17.10;59.70;;;;;;5075295;28;20489;-74
2023/05/17 11:01:57;;;;;;;8.67;2.47;;;17.10;59.90;;;;;;5073728;28;20549;-75
2023/05/17 11:04:26;;;;;;;5.43;2.50;;;17.10;59.80;;;;;;5075103;28;20481;-75
2023/05/17 11:07:11;;;;;;;4.97;2.20;;;17.00;59.70;;;;;;5075778;28;20477;-76
2023/05/17 11:09:41;;;;;;;7.30;3.73;;;17.00;59.80;;;;;;5074917;28;20481;-74
2023/05/17 11:12:11;;;;;;;8.43;3.17;;;17.00;60.40;;;;;;5075055;28;20466;-75
2023/05/17 11:14:52;;;;;;;6.63;3.00;;;17.00;60.60;;;;;;5074468;28;20470;-76
2023/05/17 11:17:21;;;;;;;3.10;1.93;;;17.00;60.70;;;;;;5090245;28;20547;-77
2023/05/17 11:20:05;;;;;;;4.80;1.97;;;17.00;60.40;;;;;;5065976;28;20480;-76
2023/05/17 11:22:46;;;;;;;5.97;2.30;;;17.10;60.60;;;;;;5074570;28;20549;-77
2023/05/17 11:25:14;;;;;;;3.13;2.40;;;17.10;60.40;;;;;;5075327;28;20466;-74
2023/05/17 11:27:47;;;;;;;3.93;2.23;;;17.20;59.20;;;;;;5074106;28;20490;-75
2023/05/17 11:30:21;;;;;;;5.77;3.30;;;17.20;58.80;;;;;;5075255;28;20470;-77
2023/05/17 11:32:51;;;;;;;4.93;2.30;;;17.10;59.40;;;;;;5074268;28;20463;-76
2023/05/17 11:35:19;;;;;;;5.67;2.27;;;17.10;59.90;;;;;;5074985;28;20470;-76
2023/05/17 11:37:48;;;;;;;6.17;2.40;;;17.20;60.10;;;;;;5074789;28;20474;-75
2023/05/17 11:40:26;;;;;;;6.30;3.13;;;17.20;59.60;;;;;;5074412;28;20865;-75
2023/05/17 11:43:22;;;;;;;8.10;2.73;;;17.30;58.60;;;;;;5074349;28;20762;-76
2023/05/17 11:45:50;;;;;;;8.40;3.33;;;17.30;58.90;;;;;;5071865;28;20501;-76
2023/05/17 11:48:18;;;;;;;6.30;2.40;;;17.30;59.00;;;;;;5074650;28;20952;-76
2023/05/17 11:50:47;;;;;;;5.10;2.40;;;17.40;58.90;;;;;;5074124;28;20963;-74
2023/05/17 11:53:14;;;;;;;3.80;2.33;;;17.40;59.10;;;;;;5074337;28;20485;-75
2023/05/17 11:55:43;;;;;;;7.40;3.07;;;17.50;59.10;;;;;;5073773;28;20569;-75
2023/05/17 11:58:13;;;;;;;5.40;2.47;;;17.50;59.00;;;;;;5074162;28;20496;-75
2023/05/17 12:00:46;;;;;;;8.53;3.60;;;17.60;58.80;;;;;;5073912;28;20471;-75
2023/05/17 12:03:21;;;;;;;10.77;3.00;;;17.60;58.40;;;;;;5074406;28;20611;-75
2023/05/17 12:05:50;;;;;;;3.37;1.97;;;17.60;58.30;;;;;;5073791;28;20478;-75
2023/05/17 12:08:21;;;;;;;9.60;3.37;;;17.60;58.30;;;;;;5074466;28;20466;-76
2023/05/17 12:10:50;;;;;;;4.50;2.37;;;17.50;58.20;;;;;;5074087;28;20462;-73
2023/05/17 12:13:17;;;;;;;3.73;2.10;;;17.50;58.20;;;;;;5073615;28;20474;-74
2023/05/17 12:15:51;;;;;;;7.40;2.77;;;17.50;58.30;;;;;;5073650;28;21051;-76
2023/05/17 12:18:19;;;;;;;7.43;3.80;;;17.50;58.40;;;;;;5074598;28;20463;-74
2023/05/17 12:20:59;;;;;;;4.50;2.10;;;17.50;58.30;;;;;;5073821;28;20462;-74
2023/05/17 12:23:28;;;;;;;8.80;3.30;;;17.50;57.60;;;;;;5073897;28;20478;-75
2023/05/17 12:26:06;;;;;;;5.77;2.90;;;17.50;57.30;;;;;;5073529;28;20531;-75
2023/05/17 12:28:34;;;;;;;8.40;2.73;;;17.50;57.00;;;;;;5073781;28;20472;-75
2023/05/17 12:31:04;;;;;;;4.80;2.20;;;17.40;56.70;;;;;;5074094;28;20772;-75
2023/05/17 12:33:32;;;;;;;6.87;3.00;;;17.40;56.10;;;;;;5073741;28;20474;-74
2023/05/17 12:36:03;;;;;;;5.10;2.20;;;17.30;56.50;;;;;;5073549;28;20481;-76
2023/05/17 12:38:32;;;;;;;5.50;2.23;;;17.30;56.80;;;;;;5074978;28;20458;-74
2023/05/17 12:41:02;;;;;;;8.53;2.73;;;17.30;57.20;;;;;;5065278;28;20466;-76
2023/05/17 12:43:30;;;;;;;7.40;3.97;;;17.30;57.50;;;;;;5082223;28;20476;-77
2023/05/17 12:46:06;;;;;;;7.43;2.90;;;17.30;57.90;;;;;;5083229;28;20469;-76
2023/05/17 12:48:34;;;;;;;5.70;2.17;;;17.30;58.10;;;;;;5080373;28;20987;-75
2023/05/17 12:51:07;;;;;;;5.47;2.70;;;17.40;57.50;;;;;;5073822;28;20473;-74
2023/05/17 12:53:39;;;;;;;6.80;2.33;;;17.40;57.00;;;;;;5072677;28;20558;-73
2023/05/17 12:56:07;;;;;;;4.67;1.97;;;17.40;56.60;;;;;;5073594;28;20470;-75